createdAt,value
2023-06-11T00:05:00.612Z,1017
2023-06-11T00:17:00.459Z,1017
2023-06-11T00:29:00.598Z,1017
2023-06-11T00:41:00.566Z,1017
2023-06-11T00:53:00.509Z,1017
2023-06-11T01:05:00.592Z,1017
2023-06-11T01:17:00.655Z,1017
2023-06-11T01:29:00.625Z,1017
2023-06-11T01:41:00.525Z,1017
2023-06-11T01:53:00.709Z,1016
2023-06-11T02:05:00.671Z,1016
2023-06-11T02:17:00.705Z,1016
2023-06-11T02:29:00.556Z,1016
2023-06-11T02:41:00.739Z,1016
2023-06-11T02:53:00.685Z,1016
2023-06-11T03:05:00.702Z,1016
2023-06-11T03:17:00.593Z,1016
2023-06-11T03:29:00.781Z,1016
2023-06-11T03:41:00.702Z,1016
2023-06-11T03:53:00.712Z,1016
2023-06-11T04:05:00.690Z,1016
2023-06-11T04:17:00.930Z,1016
2023-06-11T04:29:00.788Z,1016
2023-06-11T04:41:00.795Z,1016
2023-06-11T04:53:00.691Z,1016
2023-06-11T05:05:00.942Z,1016
2023-06-11T05:17:00.856Z,1016
2023-06-11T05:29:00.803Z,1016
2023-06-11T05:41:00.940Z,1016
2023-06-11T05:53:00.898Z,1016
2023-06-11T06:05:01.001Z,1016
2023-06-11T06:17:00.826Z,1016
2023-06-11T06:29:00.962Z,1016
2023-06-11T06:41:00.957Z,1016
2023-06-11T06:53:00.877Z,1017
2023-06-11T07:05:00.877Z,1017
2023-06-11T07:17:00.998Z,1018
2023-06-11T07:29:00.980Z,1019
2023-06-11T07:41:00.912Z,1019
2023-06-11T07:53:01.089Z,1019
2023-06-11T08:05:01.073Z,1019
2023-06-11T08:17:01.114Z,1019
2023-06-11T08:29:00.945Z,1020
2023-06-11T08:41:01.119Z,1020
2023-06-11T08:53:01.039Z,1020
2023-06-11T09:05:01.045Z,1020
2023-06-11T09:17:00.973Z,1020
2023-06-11T09:29:01.021Z,1020
2023-06-11T09:41:01.180Z,1020
2023-06-11T09:53:01.594Z,1020
2023-06-11T10:05:01.106Z,1020
2023-06-11T10:17:01.108Z,1020
2023-06-11T10:29:01.213Z,1020
2023-06-11T10:41:01.181Z,1020
2023-06-11T10:53:01.120Z,1020
2023-06-11T11:05:01.349Z,1021
2023-06-11T11:17:01.293Z,1021
2023-06-11T11:29:01.602Z,1020
2023-06-11T11:41:01.152Z,1020
2023-06-11T11:53:01.945Z,1021
2023-06-11T12:05:01.292Z,1021
2023-06-11T12:17:01.275Z,1021
2023-06-11T12:29:01.204Z,1022
2023-06-11T12:41:01.360Z,1022
2023-06-11T12:53:01.329Z,1022
2023-06-11T13:05:01.370Z,1021
2023-06-11T13:17:01.202Z,1021
2023-06-11T13:29:01.930Z,1021
2023-06-11T13:41:01.397Z,1021
2023-06-11T13:53:02.621Z,1022
2023-06-11T14:05:01.435Z,1023
2023-06-11T14:17:01.497Z,1023
2023-06-11T16:41:00.247Z,1019
2023-06-11T16:53:00.236Z,1019
2023-06-11T17:05:00.238Z,1020
2023-06-11T17:17:00.418Z,1021
2023-06-11T17:29:00.277Z,1022
2023-06-11T17:41:00.248Z,1022
2023-06-11T17:53:00.409Z,1020
2023-06-11T18:05:00.349Z,1020
2023-06-11T18:17:00.350Z,1020
2023-06-11T18:29:00.251Z,1020
2023-06-11T18:41:00.435Z,1020
2023-06-11T18:53:00.394Z,1020
2023-06-11T19:05:00.334Z,1020
2023-06-11T19:17:00.565Z,1020
2023-06-11T19:29:00.529Z,1020
2023-06-11T19:41:00.671Z,1020
2023-06-11T19:53:00.427Z,1020
2023-06-11T20:05:00.561Z,1020
2023-06-11T20:17:00.637Z,1020
2023-06-11T20:29:00.489Z,1019
2023-06-11T20:41:00.462Z,1019
2023-06-11T20:53:00.574Z,1019
2023-06-11T21:05:00.501Z,1019
2023-06-11T21:17:00.480Z,1019
2023-06-11T21:29:00.682Z,1019
2023-06-11T21:41:00.451Z,1019
2023-06-11T21:53:00.641Z,1019
2023-06-11T22:05:00.567Z,1019
2023-06-11T22:17:00.623Z,1019
2023-06-11T22:29:00.695Z,1019
2023-06-11T22:41:00.675Z,1019
2023-06-11T22:53:00.595Z,1019
2023-06-11T23:05:00.703Z,1018
2023-06-11T23:17:00.766Z,1018
2023-06-11T23:29:00.709Z,1018
2023-06-11T23:41:00.652Z,1018
2023-06-11T23:53:00.645Z,1018
